TimeCST,TemperatureF,Dew PointF,Humidity,Sea Level PressureIn,VisibilityMPH,Wind Direction,Wind SpeedMPH,Gust SpeedMPH,PrecipitationIn,Events,Conditions,WindDirDegrees,DateUTC
12:53 AM,36.0,32.0,86,30.19,10.0,SE,3.5,-,N/A,,Overcast,130,2014-01-10 06:53:00
1:53 AM,37.0,32.0,82,30.19,10.0,SE,4.6,-,N/A,,Overcast,140,2014-01-10 07:53:00
2:44 AM,37.0,32.0,82,30.16,10.0,SE,4.6,-,N/A,,Overcast,140,2014-01-10 08:44:00
2:53 AM,37.0,32.0,82,30.16,10.0,SE,4.6,-,N/A,,Overcast,130,2014-01-10 08:53:00
3:18 AM,37.0,33.1,86,30.15,10.0,Calm,Calm,-,N/A,,Overcast,0,2014-01-10 09:18:00
3:53 AM,37.0,33.1,86,30.14,10.0,East,4.6,-,N/A,,Overcast,100,2014-01-10 09:53:00
4:53 AM,41.0,36.0,82,30.12,10.0,SSE,6.9,-,N/A,,Overcast,150,2014-01-10 10:53:00
5:53 AM,41.0,37.0,86,30.10,10.0,SSE,8.1,-,N/A,,Mostly Cloudy,160,2014-01-10 11:53:00
6:53 AM,43.0,39.0,86,30.10,10.0,SSE,6.9,-,N/A,,Overcast,160,2014-01-10 12:53:00
7:53 AM,45.0,39.9,82,30.08,10.0,South,10.4,-,N/A,,Overcast,170,2014-01-10 13:53:00
8:31 AM,46.0,41.0,83,30.08,10.0,South,10.4,-,N/A,,Overcast,170,2014-01-10 14:31:00
8:53 AM,46.0,41.0,83,30.09,10.0,South,6.9,-,N/A,,Overcast,170,2014-01-10 14:53:00
9:10 AM,46.9,42.1,83,30.08,10.0,South,8.1,-,N/A,,Overcast,170,2014-01-10 15:10:00
9:34 AM,46.9,42.1,83,30.08,10.0,South,9.2,-,N/A,,Overcast,180,2014-01-10 15:34:00
9:53 AM,46.9,42.1,83,30.08,10.0,SSE,8.1,-,N/A,,Overcast,160,2014-01-10 15:53:00
10:07 AM,46.9,43.0,86,30.06,10.0,SSE,8.1,-,N/A,,Overcast,160,2014-01-10 16:07:00
10:30 AM,48.0,43.0,83,30.05,10.0,SSE,8.1,-,0.01,,Overcast,160,2014-01-10 16:30:00
10:53 AM,48.0,43.0,83,30.03,10.0,SSE,8.1,17.3,0.01,,Overcast,160,2014-01-10 16:53:00
11:35 AM,48.0,44.1,86,29.97,9.0,SSE,9.2,-,0.00,,Overcast,150,2014-01-10 17:35:00
11:53 AM,48.0,44.1,86,29.96,7.0,SSE,12.7,19.6,0.00,,Overcast,150,2014-01-10 17:53:00
12:23 PM,46.9,44.1,90,29.94,6.0,SSE,8.1,-,0.00,,Overcast,160,2014-01-10 18:23:00
12:53 PM,48.0,45.0,89,29.94,6.0,South,8.1,-,0.01,,Overcast,170,2014-01-10 18:53:00
1:13 PM,48.0,44.1,86,29.92,7.0,SSE,10.4,-,0.00,,Overcast,150,2014-01-10 19:13:00
1:31 PM,48.0,44.1,86,29.92,7.0,SSE,8.1,-,0.00,,Overcast,160,2014-01-10 19:31:00
1:50 PM,48.2,44.6,87,29.91,7.0,SSE,8.1,-,0.00,,Overcast,150,2014-01-10 19:50:00
1:53 PM,48.0,45.0,89,29.91,7.0,SSE,8.1,-,0.00,,Overcast,150,2014-01-10 19:53:00
2:17 PM,48.9,45.0,86,29.89,8.0,SSE,6.9,-,N/A,,Overcast,150,2014-01-10 20:17:00
2:53 PM,48.0,44.1,86,29.90,9.0,South,8.1,-,N/A,,Overcast,180,2014-01-10 20:53:00
3:19 PM,48.0,44.1,86,29.88,8.0,SE,9.2,-,0.00,,Overcast,140,2014-01-10 21:19:00
3:26 PM,48.0,44.1,86,29.88,8.0,SSE,8.1,-,0.00,Rain,Light Rain,150,2014-01-10 21:26:00
3:53 PM,48.0,44.1,86,29.86,9.0,SE,10.4,-,0.00,,Overcast,140,2014-01-10 21:53:00
4:29 PM,48.0,44.1,86,29.81,9.0,SE,13.8,-,N/A,,Overcast,140,2014-01-10 22:29:00
4:53 PM,48.0,44.1,86,29.80,9.0,SSE,15.0,-,N/A,,Overcast,150,2014-01-10 22:53:00
5:53 PM,48.9,46.0,90,29.77,5.0,SSE,10.4,-,0.03,Rain,Rain,160,2014-01-10 23:53:00
6:53 PM,48.9,46.9,93,29.73,4.0,SSE,11.5,-,0.19,Rain,Light Rain,160,2014-01-11 00:53:00
7:22 PM,50.0,46.9,89,29.73,5.0,South,12.7,-,0.05,Rain,Light Rain,170,2014-01-11 01:22:00
7:38 PM,50.0,48.0,93,29.74,2.5,South,6.9,-,0.12,Rain,Rain,180,2014-01-11 01:38:00
7:48 PM,50.0,48.2,94,29.73,3.0,South,13.8,18.4,0.16,Rain,Rain,170,2014-01-11 01:48:00
7:53 PM,50.0,48.0,93,29.74,3.0,Variable,6.9,18.4,0.18,Rain,Heavy Rain,0,2014-01-11 01:53:00
7:57 PM,50.0,48.0,93,29.74,2.5,SW,8.1,17.3,0.02,Rain,Rain,220,2014-01-11 01:57:00
8:01 PM,50.0,48.0,93,29.75,2.5,SW,8.1,-,0.05,Rain,Rain,230,2014-01-11 02:01:00
8:11 PM,48.9,46.9,93,29.79,3.0,West,13.8,-,0.06,Rain,Rain,270,2014-01-11 02:11:00
8:16 PM,48.9,46.9,93,29.78,2.5,West,11.5,-,0.08,Rain,Rain,270,2014-01-11 02:16:00
8:21 PM,48.9,46.9,93,29.79,3.0,West,12.7,-,0.10,Rain,Rain,280,2014-01-11 02:21:00
8:26 PM,48.0,46.9,96,29.77,2.5,SW,13.8,-,0.12,Rain,Rain,230,2014-01-11 02:26:00
8:38 PM,50.0,46.9,89,29.76,2.5,SW,12.7,24.2,0.21,Rain,Heavy Rain,220,2014-01-11 02:38:00
8:45 PM,51.1,46.9,86,29.75,4.0,SSW,12.7,23.0,0.24,Rain,Rain,210,2014-01-11 02:45:00
8:53 PM,51.1,48.0,89,29.74,5.0,SSW,12.7,19.6,0.26,Rain,Rain,210,2014-01-11 02:53:00
9:53 PM,50.0,46.9,89,29.70,6.0,South,9.2,-,0.11,Rain,Light Rain,180,2014-01-11 03:53:00
10:53 PM,48.0,46.0,93,29.66,10.0,SSE,13.8,-,0.09,Rain,Light Rain,160,2014-01-11 04:53:00
11:24 PM,50.0,48.0,93,29.63,10.0,South,16.1,27.6,0.02,Rain,Light Rain,170,2014-01-11 05:24:00
11:53 PM,51.1,48.9,92,29.63,5.0,South,12.7,21.9,0.05,Rain,Rain,170,2014-01-11 05:53:00